sensor_id;sensor_type;location;lat;lon;timestamp;pressure;altitude;pressure_sealevel;temperature;humidity
57094;BME280;42970;50.996;3.706;2023-02-02T00:00:08;76116.19;;;-146.65;95.29
57094;BME280;42970;50.996;3.706;2023-02-02T00:02:33;76112.13;;;-146.65;95.07
57094;BME280;42970;50.996;3.706;2023-02-02T00:04:58;76110.13;;;-146.65;95.45
57094;BME280;42970;50.996;3.706;2023-02-02T00:07:24;76114.16;;;-146.65;95.74
57094;BME280;42970;50.996;3.706;2023-02-02T00:09:49;76122.22;;;-146.65;96.13
57094;BME280;42970;50.996;3.706;2023-02-02T00:12:15;76118.19;;;-146.65;95.98
57094;BME280;42970;50.996;3.706;2023-02-02T00:14:40;76112.13;;;-146.65;96.14
57094;BME280;42970;50.996;3.706;2023-02-02T00:17:07;76116.19;;;-146.65;95.97
57094;BME280;42970;50.996;3.706;2023-02-02T00:19:33;76110.13;;;-146.65;96.12
57094;BME280;42970;50.996;3.706;2023-02-02T00:21:58;76110.13;;;-146.65;96.13
57094;BME280;42970;50.996;3.706;2023-02-02T00:24:24;76098.03;;;-146.65;95.88
57094;BME280;42970;50.996;3.706;2023-02-02T00:26:50;76108.09;;;-146.65;96.22
57094;BME280;42970;50.996;3.706;2023-02-02T00:29:17;76096.00;;;-146.65;96.22
57094;BME280;42970;50.996;3.706;2023-02-02T00:31:43;76106.09;;;-146.65;96.00
57094;BME280;42970;50.996;3.706;2023-02-02T00:34:09;76085.91;;;-146.65;95.95
57094;BME280;42970;50.996;3.706;2023-02-02T00:36:35;76110.13;;;-146.65;96.17
57094;BME280;42970;50.996;3.706;2023-02-02T00:39:00;76110.13;;;-146.65;96.66
57094;BME280;42970;50.996;3.706;2023-02-02T00:41:25;76110.13;;;-146.65;96.27
57094;BME280;42970;50.996;3.706;2023-02-02T00:43:51;76104.06;;;-146.65;96.46
57094;BME280;42970;50.996;3.706;2023-02-02T00:46:37;76114.16;;;-146.65;96.64
57094;BME280;42970;50.996;3.706;2023-02-02T00:49:03;76110.13;;;-146.65;96.10
57094;BME280;42970;50.996;3.706;2023-02-02T00:51:28;76108.09;;;-146.65;96.46
57094;BME280;42970;50.996;3.706;2023-02-02T00:53:53;76114.16;;;-146.65;96.64
57094;BME280;42970;50.996;3.706;2023-02-02T00:56:19;76120.22;;;-146.65;96.87
57094;BME280;42970;50.996;3.706;2023-02-02T00:58:44;76108.09;;;-146.65;96.87
57094;BME280;42970;50.996;3.706;2023-02-02T01:01:19;76110.13;;;-146.65;96.39
57094;BME280;42970;50.996;3.706;2023-02-02T01:03:46;76108.09;;;-146.65;96.46
57094;BME280;42970;50.996;3.706;2023-02-02T01:06:11;76110.13;;;-146.65;96.85
57094;BME280;42970;50.996;3.706;2023-02-02T01:08:37;76106.09;;;-146.65;96.53
57094;BME280;42970;50.996;3.706;2023-02-02T01:11:02;76112.13;;;-146.65;96.81
57094;BME280;42970;50.996;3.706;2023-02-02T01:13:27;76114.16;;;-146.65;96.57
57094;BME280;42970;50.996;3.706;2023-02-02T01:15:56;76104.06;;;-146.65;96.34
57094;BME280;42970;50.996;3.706;2023-02-02T01:18:22;76102.06;;;-146.65;96.51
57094;BME280;42970;50.996;3.706;2023-02-02T01:20:55;76104.06;;;-146.65;96.30
57094;BME280;42970;50.996;3.706;2023-02-02T01:23:20;76106.09;;;-146.65;96.54
57094;BME280;42970;50.996;3.706;2023-02-02T01:25:51;76116.19;;;-146.65;96.52
57094;BME280;42970;50.996;3.706;2023-02-02T01:28:16;76102.06;;;-146.65;96.82
57094;BME280;42970;50.996;3.706;2023-02-02T01:30:42;76106.09;;;-146.65;96.54
57094;BME280;42970;50.996;3.706;2023-02-02T01:33:07;76106.09;;;-146.65;96.87
57094;BME280;42970;50.996;3.706;2023-02-02T01:35:32;76122.22;;;-146.65;96.85
57094;BME280;42970;50.996;3.706;2023-02-02T01:37:58;76118.19;;;-146.65;96.97
57094;BME280;42970;50.996;3.706;2023-02-02T01:40:25;76102.06;;;-146.65;96.50
57094;BME280;42970;50.996;3.706;2023-02-02T01:42:50;76110.13;;;-146.65;96.78
57094;BME280;42970;50.996;3.706;2023-02-02T01:45:18;76122.22;;;-146.65;96.79
57094;BME280;42970;50.996;3.706;2023-02-02T01:47:49;76112.13;;;-146.65;96.56
57094;BME280;42970;50.996;3.706;2023-02-02T01:50:15;76120.22;;;-146.65;96.69
57094;BME280;42970;50.996;3.706;2023-02-02T01:52:42;76124.25;;;-146.65;97.08
57094;BME280;42970;50.996;3.706;2023-02-02T01:55:10;76126.25;;;-146.65;97.04
57094;BME280;42970;50.996;3.706;2023-02-02T01:57:37;76132.31;;;-146.65;96.93
57094;BME280;42970;50.996;3.706;2023-02-02T02:00:05;76122.22;;;-146.65;96.87
57094;BME280;42970;50.996;3.706;2023-02-02T02:02:31;76108.09;;;-146.65;96.40
57094;BME280;42970;50.996;3.706;2023-02-02T02:04:58;76104.06;;;-146.65;95.99
57094;BME280;42970;50.996;3.706;2023-02-02T02:07:25;76104.06;;;-146.65;96.27
57094;BME280;42970;50.996;3.706;2023-02-02T02:09:51;76106.09;;;-146.65;96.05
57094;BME280;42970;50.996;3.706;2023-02-02T02:12:16;76093.97;;;-146.65;96.35
57094;BME280;42970;50.996;3.706;2023-02-02T02:14:42;76108.09;;;-146.65;96.06
57094;BME280;42970;50.996;3.706;2023-02-02T02:17:35;76104.06;;;-146.65;96.01
57094;BME280;42970;50.996;3.706;2023-02-02T02:36:32;76100.03;;;-146.65;96.00
57094;BME280;42970;50.996;3.706;2023-02-02T02:39:25;76122.22;;;-146.65;96.09
57094;BME280;42970;50.996;3.706;2023-02-02T02:41:49;76120.22;;;-146.65;95.96
57094;BME280;42970;50.996;3.706;2023-02-02T02:44:17;76110.13;;;-146.65;95.91
57094;BME280;42970;50.996;3.706;2023-02-02T02:46:43;76122.22;;;-146.65;96.04
57094;BME280;42970;50.996;3.706;2023-02-02T02:49:09;76136.34;;;-146.65;96.24
57094;BME280;42970;50.996;3.706;2023-02-02T02:54:04;76122.22;;;-146.65;95.89
57094;BME280;42970;50.996;3.706;2023-02-02T02:56:34;76132.31;;;-146.65;96.27
57094;BME280;42970;50.996;3.706;2023-02-02T02:59:04;76134.31;;;-146.65;96.35
57094;BME280;42970;50.996;3.706;2023-02-02T03:02:08;76134.31;;;-146.65;96.09
57094;BME280;42970;50.996;3.706;2023-02-02T03:04:27;76134.31;;;-146.65;95.83
57094;BME280;42970;50.996;3.706;2023-02-02T03:07:03;76138.38;;;-146.65;95.94
57094;BME280;42970;50.996;3.706;2023-02-02T03:09:30;76140.38;;;-146.65;95.89
57094;BME280;42970;50.996;3.706;2023-02-02T03:11:59;76134.31;;;-146.65;95.65
57094;BME280;42970;50.996;3.706;2023-02-02T03:14:24;76122.22;;;-146.65;95.42
57094;BME280;42970;50.996;3.706;2023-02-02T03:16:50;76130.28;;;-146.65;95.71
57094;BME280;42970;50.996;3.706;2023-02-02T03:19:16;76134.31;;;-146.65;95.75
57094;BME280;42970;50.996;3.706;2023-02-02T03:21:41;76132.31;;;-146.65;95.66
57094;BME280;42970;50.996;3.706;2023-02-02T03:24:06;76136.34;;;-146.65;95.72
57094;BME280;42970;50.996;3.706;2023-02-02T03:26:32;76130.28;;;-146.65;95.62
57094;BME280;42970;50.996;3.706;2023-02-02T03:28:57;76116.19;;;-146.65;95.49
57094;BME280;42970;50.996;3.706;2023-02-02T03:31:23;76134.31;;;-146.65;95.54
57094;BME280;42970;50.996;3.706;2023-02-02T03:33:50;76124.25;;;-146.65;95.44
57094;BME280;42970;50.996;3.706;2023-02-02T03:36:16;76140.38;;;-146.65;95.32
57094;BME280;42970;50.996;3.706;2023-02-02T03:38:41;76132.31;;;-146.65;95.23
57094;BME280;42970;50.996;3.706;2023-02-02T03:41:06;76120.22;;;-146.65;95.24
57094;BME280;42970;50.996;3.706;2023-02-02T03:43:32;76114.16;;;-146.65;94.96
57094;BME280;42970;50.996;3.706;2023-02-02T03:45:58;76126.25;;;-146.65;95.21
57094;BME280;42970;50.996;3.706;2023-02-02T03:48:24;76132.31;;;-146.65;95.01
57094;BME280;42970;50.996;3.706;2023-02-02T03:50:49;76140.38;;;-146.65;95.00
57094;BME280;42970;50.996;3.706;2023-02-02T03:53:15;76130.28;;;-146.65;94.78
57094;BME280;42970;50.996;3.706;2023-02-02T03:55:40;76138.38;;;-146.65;94.87
57094;BME280;42970;50.996;3.706;2023-02-02T03:58:05;76134.31;;;-146.65;95.04
57094;BME280;42970;50.996;3.706;2023-02-02T04:00:31;76146.44;;;-146.65;94.84
57094;BME280;42970;50.996;3.706;2023-02-02T04:02:56;76142.41;;;-146.65;95.13
57094;BME280;42970;50.996;3.706;2023-02-02T04:05:21;76152.50;;;-146.65;95.67
57094;BME280;42970;50.996;3.706;2023-02-02T04:07:47;76142.41;;;-146.65;95.46
57094;BME280;42970;50.996;3.706;2023-02-02T04:10:13;76150.47;;;-146.65;95.41
57094;BME280;42970;50.996;3.706;2023-02-02T04:12:38;76152.50;;;-146.65;95.37
57094;BME280;42970;50.996;3.706;2023-02-02T04:15:04;76160.56;;;-146.65;95.70
57094;BME280;42970;50.996;3.706;2023-02-02T04:17:29;76166.59;;;-146.65;96.15
57094;BME280;42970;50.996;3.706;2023-02-02T04:19:54;76150.47;;;-146.65;95.74
57094;BME280;42970;50.996;3.706;2023-02-02T04:22:23;76160.56;;;-146.65;96.08
57094;BME280;42970;50.996;3.706;2023-02-02T04:24:48;76160.56;;;-146.65;96.01
57094;BME280;42970;50.996;3.706;2023-02-02T04:27:13;76162.56;;;-146.65;96.00
57094;BME280;42970;50.996;3.706;2023-02-02T04:29:38;76158.53;;;-146.65;96.18
57094;BME280;42970;50.996;3.706;2023-02-02T04:32:03;76170.66;;;-146.65;96.20
57094;BME280;42970;50.996;3.706;2023-02-02T04:34:29;76166.59;;;-146.65;96.59
57094;BME280;42970;50.996;3.706;2023-02-02T04:36:54;76166.59;;;-146.65;96.18
57094;BME280;42970;50.996;3.706;2023-02-02T04:39:20;76182.75;;;-146.65;96.64
57094;BME280;42970;50.996;3.706;2023-02-02T04:41:45;76182.75;;;-146.65;96.89
57094;BME280;42970;50.996;3.706;2023-02-02T04:44:14;76170.66;;;-146.65;96.88
57094;BME280;42970;50.996;3.706;2023-02-02T04:46:40;76166.59;;;-146.65;96.82
57094;BME280;42970;50.996;3.706;2023-02-02T04:49:05;76174.69;;;-146.65;96.91
57094;BME280;42970;50.996;3.706;2023-02-02T04:51:31;76166.59;;;-146.65;97.12
57094;BME280;42970;50.996;3.706;2023-02-02T04:53:59;76180.72;;;-146.65;97.02
57094;BME280;42970;50.996;3.706;2023-02-02T04:56:24;76184.75;;;-146.65;96.89
57094;BME280;42970;50.996;3.706;2023-02-02T04:58:52;76162.56;;;-146.65;97.20
57094;BME280;42970;50.996;3.706;2023-02-02T05:01:18;76174.69;;;-146.65;97.04
57094;BME280;42970;50.996;3.706;2023-02-02T05:03:44;76172.66;;;-146.65;96.86
57094;BME280;42970;50.996;3.706;2023-02-02T05:06:09;76190.81;;;-146.65;97.10
57094;BME280;42970;50.996;3.706;2023-02-02T05:08:35;76182.75;;;-146.65;97.24
57094;BME280;42970;50.996;3.706;2023-02-02T05:11:07;76176.69;;;-146.65;97.74
57094;BME280;42970;50.996;3.706;2023-02-02T05:13:32;76174.69;;;-146.65;97.62
57094;BME280;42970;50.996;3.706;2023-02-02T05:15:58;76176.69;;;-146.65;97.83
57094;BME280;42970;50.996;3.706;2023-02-02T05:18:23;76182.75;;;-146.65;98.19
57094;BME280;42970;50.996;3.706;2023-02-02T05:20:50;76178.72;;;-146.65;98.19
57094;BME280;42970;50.996;3.706;2023-02-02T05:23:15;76166.59;;;-146.65;98.72
57094;BME280;42970;50.996;3.706;2023-02-02T05:25:40;76188.78;;;-146.65;99.45
57094;BME280;42970;50.996;3.706;2023-02-02T05:28:05;76198.88;;;-146.65;100.00
57094;BME280;42970;50.996;3.706;2023-02-02T05:30:31;76206.97;;;-146.65;100.00
57094;BME280;42970;50.996;3.706;2023-02-02T05:32:56;76188.78;;;-146.65;99.80
57094;BME280;42970;50.996;3.706;2023-02-02T05:35:21;76192.84;;;-146.65;99.33
57094;BME280;42970;50.996;3.706;2023-02-02T05:37:47;76190.81;;;-146.65;99.27
57094;BME280;42970;50.996;3.706;2023-02-02T05:40:12;76194.84;;;-146.65;99.34
57094;BME280;42970;50.996;3.706;2023-02-02T05:42:37;76194.84;;;-146.65;99.46
57094;BME280;42970;50.996;3.706;2023-02-02T05:45:03;76188.78;;;-146.65;99.34
57094;BME280;42970;50.996;3.706;2023-02-02T05:47:28;76208.97;;;-146.65;99.68
57094;BME280;42970;50.996;3.706;2023-02-02T05:49:53;76204.94;;;-146.65;99.53
57094;BME280;42970;50.996;3.706;2023-02-02T05:52:20;76190.81;;;-146.65;99.72
57094;BME280;42970;50.996;3.706;2023-02-02T05:54:46;76182.75;;;-146.65;99.68
57094;BME280;42970;50.996;3.706;2023-02-02T05:57:11;76190.81;;;-146.65;99.86
57094;BME280;42970;50.996;3.706;2023-02-02T05:59:36;76186.78;;;-146.65;99.83
57094;BME280;42970;50.996;3.706;2023-02-02T06:02:02;76186.78;;;-146.65;100.00
57094;BME280;42970;50.996;3.706;2023-02-02T06:04:27;76190.81;;;-146.65;100.00
57094;BME280;42970;50.996;3.706;2023-02-02T06:06:53;76184.75;;;-146.65;100.00
57094;BME280;42970;50.996;3.706;2023-02-02T06:09:19;76182.75;;;-146.65;100.00
57094;BME280;42970;50.996;3.706;2023-02-02T06:11:45;76186.78;;;-146.65;100.00
57094;BME280;42970;50.996;3.706;2023-02-02T06:14:10;76200.91;;;-146.65;100.00
57094;BME280;42970;50.996;3.706;2023-02-02T06:16:35;76184.75;;;-146.65;100.00
57094;BME280;42970;50.996;3.706;2023-02-02T06:19:01;76184.75;;;-146.65;100.00
57094;BME280;42970;50.996;3.706;2023-02-02T06:21:26;76186.78;;;-146.65;100.00
57094;BME280;42970;50.996;3.706;2023-02-02T06:23:55;76184.75;;;-146.65;100.00
57094;BME280;42970;50.996;3.706;2023-02-02T06:26:20;76182.75;;;-146.65;100.00
57094;BME280;42970;50.996;3.706;2023-02-02T06:28:49;76176.69;;;-146.65;100.00
57094;BME280;42970;50.996;3.706;2023-02-02T06:31:15;76178.72;;;-146.65;100.00
57094;BME280;42970;50.996;3.706;2023-02-02T06:33:43;76194.84;;;-146.65;100.00
57094;BME280;42970;50.996;3.706;2023-02-02T06:36:14;76188.78;;;-146.65;100.00
57094;BME280;42970;50.996;3.706;2023-02-02T06:38:39;76211.00;;;-146.65;100.00
57094;BME280;42970;50.996;3.706;2023-02-02T06:41:05;76196.88;;;-146.65;100.00
57094;BME280;42970;50.996;3.706;2023-02-02T06:43:31;76192.84;;;-146.65;100.00
57094;BME280;42970;50.996;3.706;2023-02-02T06:45:56;76206.97;;;-146.65;100.00
57094;BME280;42970;50.996;3.706;2023-02-02T06:48:22;76215.03;;;-146.65;100.00
57094;BME280;42970;50.996;3.706;2023-02-02T06:50:47;76215.03;;;-146.65;100.00
57094;BME280;42970;50.996;3.706;2023-02-02T06:53:13;76206.97;;;-146.65;100.00
57094;BME280;42970;50.996;3.706;2023-02-02T06:55:38;76202.91;;;-146.65;99.80
57094;BME280;42970;50.996;3.706;2023-02-02T06:58:04;76217.03;;;-146.65;99.56
57094;BME280;42970;50.996;3.706;2023-02-02T07:00:29;76217.03;;;-146.65;99.11
57094;BME280;42970;50.996;3.706;2023-02-02T07:02:55;76215.03;;;-146.65;99.27
57094;BME280;42970;50.996;3.706;2023-02-02T07:05:20;76211.00;;;-146.65;98.74
57094;BME280;42970;50.996;3.706;2023-02-02T07:07:48;76202.91;;;-146.65;98.32
57094;BME280;42970;50.996;3.706;2023-02-02T07:10:14;76204.94;;;-146.65;98.20
57094;BME280;42970;50.996;3.706;2023-02-02T07:12:39;76194.84;;;-146.65;98.01
57094;BME280;42970;50.996;3.706;2023-02-02T07:15:04;76204.94;;;-146.65;97.84
57094;BME280;42970;50.996;3.706;2023-02-02T07:17:31;76215.03;;;-146.65;97.96
57094;BME280;42970;50.996;3.706;2023-02-02T07:19:56;76206.97;;;-146.65;97.87
57094;BME280;42970;50.996;3.706;2023-02-02T07:22:21;76190.81;;;-146.65;97.89
57094;BME280;42970;50.996;3.706;2023-02-02T07:24:47;76206.97;;;-146.65;98.06
57094;BME280;42970;50.996;3.706;2023-02-02T07:27:12;76186.78;;;-146.65;97.83
57094;BME280;42970;50.996;3.706;2023-02-02T07:29:37;76202.91;;;-146.65;97.32
57094;BME280;42970;50.996;3.706;2023-02-02T07:32:03;76190.81;;;-146.65;97.20
57094;BME280;42970;50.996;3.706;2023-02-02T07:34:28;76194.84;;;-146.65;97.23
57094;BME280;42970;50.996;3.706;2023-02-02T07:36:53;76211.00;;;-146.65;96.82
57094;BME280;42970;50.996;3.706;2023-02-02T07:39:19;76196.88;;;-146.65;96.87
57094;BME280;42970;50.996;3.706;2023-02-02T07:41:44;76196.88;;;-146.65;96.37
57094;BME280;42970;50.996;3.706;2023-02-02T07:44:11;76196.88;;;-146.65;96.09
57094;BME280;42970;50.996;3.706;2023-02-02T07:46:39;76168.63;;;-146.65;96.19
57094;BME280;42970;50.996;3.706;2023-02-02T07:49:04;76192.84;;;-146.65;96.36
57094;BME280;42970;50.996;3.706;2023-02-02T07:51:30;76180.72;;;-146.65;95.99
57094;BME280;42970;50.996;3.706;2023-02-02T07:53:55;76172.66;;;-146.65;95.76
57094;BME280;42970;50.996;3.706;2023-02-02T07:56:23;76178.72;;;-146.65;95.87
57094;BME280;42970;50.996;3.706;2023-02-02T07:58:52;76190.81;;;-146.65;96.13
57094;BME280;42970;50.996;3.706;2023-02-02T08:01:18;76184.75;;;-146.65;95.75
57094;BME280;42970;50.996;3.706;2023-02-02T08:03:44;76198.88;;;-146.65;95.34
57094;BME280;42970;50.996;3.706;2023-02-02T08:06:14;76198.88;;;-146.65;95.82
57094;BME280;42970;50.996;3.706;2023-02-02T08:08:40;76223.09;;;-146.65;95.81
57094;BME280;42970;50.996;3.706;2023-02-02T08:11:07;76221.06;;;-146.65;96.08
57094;BME280;42970;50.996;3.706;2023-02-02T08:13:32;76231.16;;;-146.65;96.12
57094;BME280;42970;50.996;3.706;2023-02-02T08:15:57;76247.31;;;-146.65;96.52
57094;BME280;42970;50.996;3.706;2023-02-02T08:18:23;76231.16;;;-146.65;96.25
57094;BME280;42970;50.996;3.706;2023-02-02T08:20:48;76251.34;;;-146.65;96.42
57094;BME280;42970;50.996;3.706;2023-02-02T08:23:13;76259.41;;;-146.65;96.37
57094;BME280;42970;50.996;3.706;2023-02-02T08:25:41;76261.44;;;-146.65;96.46
57094;BME280;42970;50.996;3.706;2023-02-02T08:28:06;76261.44;;;-146.65;96.64
57094;BME280;42970;50.996;3.706;2023-02-02T08:30:31;76251.34;;;-146.65;96.45
57094;BME280;42970;50.996;3.706;2023-02-02T08:32:58;76265.47;;;-146.65;96.23
57094;BME280;42970;50.996;3.706;2023-02-02T08:35:23;76261.44;;;-146.65;96.64
57094;BME280;42970;50.996;3.706;2023-02-02T08:37:49;76265.47;;;-146.65;96.47
57094;BME280;42970;50.996;3.706;2023-02-02T08:40:14;76275.53;;;-146.65;96.41
57094;BME280;42970;50.996;3.706;2023-02-02T08:42:39;76269.50;;;-146.65;96.20
57094;BME280;42970;50.996;3.706;2023-02-02T08:45:05;76271.50;;;-146.65;96.47
57094;BME280;42970;50.996;3.706;2023-02-02T08:47:30;76249.31;;;-146.65;96.30
57094;BME280;42970;50.996;3.706;2023-02-02T08:49:55;76243.28;;;-146.65;95.77
57094;BME280;42970;50.996;3.706;2023-02-02T08:52:21;76243.28;;;-146.65;96.50
57094;BME280;42970;50.996;3.706;2023-02-02T08:54:46;76261.44;;;-146.65;96.20
57094;BME280;42970;50.996;3.706;2023-02-02T08:57:12;76269.50;;;-146.65;96.54
57094;BME280;42970;50.996;3.706;2023-02-02T08:59:37;76271.50;;;-146.65;96.57
57094;BME280;42970;50.996;3.706;2023-02-02T09:02:02;76275.53;;;-146.65;96.47
57094;BME280;42970;50.996;3.706;2023-02-02T09:04:27;76271.50;;;-146.65;96.45
57094;BME280;42970;50.996;3.706;2023-02-02T09:06:53;76267.47;;;-146.65;96.08
57094;BME280;42970;50.996;3.706;2023-02-02T09:09:18;76251.34;;;-146.65;96.30
57094;BME280;42970;50.996;3.706;2023-02-02T09:11:44;76261.44;;;-146.65;96.35
57094;BME280;42970;50.996;3.706;2023-02-02T09:14:09;76253.34;;;-146.65;95.79
57094;BME280;42970;50.996;3.706;2023-02-02T09:16:37;76247.31;;;-146.65;95.57
57094;BME280;42970;50.996;3.706;2023-02-02T09:19:02;76251.34;;;-146.65;95.34
57094;BME280;42970;50.996;3.706;2023-02-02T09:21:28;76243.28;;;-146.65;95.37
57094;BME280;42970;50.996;3.706;2023-02-02T09:23:53;76233.19;;;-146.65;94.99
57094;BME280;42970;50.996;3.706;2023-02-02T09:29:03;76208.97;;;-146.65;93.95
57094;BME280;42970;50.996;3.706;2023-02-02T09:31:29;76211.00;;;-146.65;93.56
57094;BME280;42970;50.996;3.706;2023-02-02T09:33:58;76215.03;;;-146.65;93.28
57094;BME280;42970;50.996;3.706;2023-02-02T09:36:24;76225.13;;;-146.65;93.54
57094;BME280;42970;50.996;3.706;2023-02-02T09:38:50;76241.25;;;-146.65;93.24
57094;BME280;42970;50.996;3.706;2023-02-02T09:47:11;76247.31;;;-146.65;93.41
57094;BME280;42970;50.996;3.706;2023-02-02T09:52:11;76170.66;;;-146.65;90.69
57094;BME280;42970;50.996;3.706;2023-02-02T09:54:42;76110.13;;;-146.65;87.79
57094;BME280;42970;50.996;3.706;2023-02-02T09:57:12;76077.84;;;-146.65;85.94
57094;BME280;42970;50.996;3.706;2023-02-02T09:59:39;76049.59;;;-146.65;84.74
57094;BME280;42970;50.996;3.706;2023-02-02T10:02:09;76037.50;;;-146.65;83.87
57094;BME280;42970;50.996;3.706;2023-02-02T10:04:38;76009.25;;;-146.65;83.17
57094;BME280;42970;50.996;3.706;2023-02-02T10:07:06;75995.13;;;-146.65;81.44
57094;BME280;42970;50.996;3.706;2023-02-02T10:12:17;75976.97;;;-146.65;80.74
57094;BME280;42970;50.996;3.706;2023-02-02T10:14:48;75956.81;;;-146.65;79.65
57094;BME280;42970;50.996;3.706;2023-02-02T10:19:44;75956.81;;;-146.65;79.41
57094;BME280;42970;50.996;3.706;2023-02-02T10:22:11;75960.84;;;-146.65;78.74
57094;BME280;42970;50.996;3.706;2023-02-02T10:24:39;76027.41;;;-146.65;81.33
57094;BME280;42970;50.996;3.706;2023-02-02T10:27:05;75976.97;;;-146.65;79.10
57094;BME280;42970;50.996;3.706;2023-02-02T10:29:38;75944.69;;;-146.65;77.97
57094;BME280;42970;50.996;3.706;2023-02-02T10:34:37;75938.66;;;-146.65;77.59
57094;BME280;42970;50.996;3.706;2023-02-02T10:39:51;75922.50;;;-146.65;75.66
57094;BME280;42970;50.996;3.706;2023-02-02T10:42:23;75882.16;;;-146.65;74.97
57094;BME280;42970;50.996;3.706;2023-02-02T10:44:53;75835.78;;;-146.65;73.05
57094;BME280;42970;50.996;3.706;2023-02-02T10:47:31;75888.22;;;-146.65;72.97
57094;BME280;42970;50.996;3.706;2023-02-02T10:52:32;75839.81;;;-146.65;72.51
57094;BME280;42970;50.996;3.706;2023-02-02T10:55:04;75851.91;;;-146.65;72.10
57094;BME280;42970;50.996;3.706;2023-02-02T10:57:41;75857.97;;;-146.65;72.44
57094;BME280;42970;50.996;3.706;2023-02-02T11:00:21;75821.66;;;-146.65;71.26
57094;BME280;42970;50.996;3.706;2023-02-02T11:03:01;75851.91;;;-146.65;72.03
57094;BME280;42970;50.996;3.706;2023-02-02T11:05:28;75898.31;;;-146.65;73.06
57094;BME280;42970;50.996;3.706;2023-02-02T11:08:14;75950.75;;;-146.65;74.91
57094;BME280;42970;50.996;3.706;2023-02-02T11:10:40;75878.13;;;-146.65;74.63
57094;BME280;42970;50.996;3.706;2023-02-02T11:13:06;75811.56;;;-146.65;70.56
57094;BME280;42970;50.996;3.706;2023-02-02T11:15:34;75835.78;;;-146.65;71.87
57094;BME280;42970;50.996;3.706;2023-02-02T11:18:12;75789.38;;;-146.65;69.62
57094;BME280;42970;50.996;3.706;2023-02-02T11:20:40;75793.41;;;-146.65;71.56
57094;BME280;42970;50.996;3.706;2023-02-02T11:23:05;75777.28;;;-146.65;69.86
57094;BME280;42970;50.996;3.706;2023-02-02T11:25:38;75747.03;;;-146.65;67.55
57094;BME280;42970;50.996;3.706;2023-02-02T11:28:19;75696.59;;;-146.65;67.10
57094;BME280;42970;50.996;3.706;2023-02-02T11:30:46;75747.03;;;-146.65;68.22
57094;BME280;42970;50.996;3.706;2023-02-02T11:33:34;75823.66;;;-146.65;70.95
57094;BME280;42970;50.996;3.706;2023-02-02T11:36:02;75708.69;;;-146.65;69.23
57094;BME280;42970;50.996;3.706;2023-02-02T11:38:28;75662.31;;;-146.65;66.97
57094;BME280;42970;50.996;3.706;2023-02-02T11:43:32;75767.19;;;-146.65;70.21
57094;BME280;42970;50.996;3.706;2023-02-02T11:46:05;75672.38;;;-146.65;68.02
57094;BME280;42970;50.996;3.706;2023-02-02T11:48:32;75615.91;;;-146.65;64.73
57094;BME280;42970;50.996;3.706;2023-02-02T11:50:59;75545.31;;;-146.65;64.87
57094;BME280;42970;50.996;3.706;2023-02-02T11:53:33;75785.34;;;-146.65;70.77
57094;BME280;42970;50.996;3.706;2023-02-02T11:56:01;75920.50;;;-146.65;76.65
57094;BME280;42970;50.996;3.706;2023-02-02T11:58:29;75932.59;;;-146.65;77.91
57094;BME280;42970;50.996;3.706;2023-02-02T12:01:08;75938.66;;;-146.65;79.75
57094;BME280;42970;50.996;3.706;2023-02-02T12:03:41;75914.44;;;-146.65;79.70
57094;BME280;42970;50.996;3.706;2023-02-02T12:06:22;75902.34;;;-146.65;79.49
57094;BME280;42970;50.996;3.706;2023-02-02T12:08:48;75920.50;;;-146.65;79.94
57094;BME280;42970;50.996;3.706;2023-02-02T12:14:00;75970.94;;;-146.65;81.47
57094;BME280;42970;50.996;3.706;2023-02-02T12:21:33;75890.25;;;-146.65;81.71
57094;BME280;42970;50.996;3.706;2023-02-02T12:26:48;75928.56;;;-146.65;81.31
57094;BME280;42970;50.996;3.706;2023-02-02T12:34:46;75944.69;;;-146.65;82.84
57094;BME280;42970;50.996;3.706;2023-02-02T12:47:27;75926.56;;;-146.65;83.53
57094;BME280;42970;50.996;3.706;2023-02-02T12:57:48;75976.97;;;-146.65;85.16
57094;BME280;42970;50.996;3.706;2023-02-02T13:00:22;75966.91;;;-146.65;85.58
57094;BME280;42970;50.996;3.706;2023-02-02T13:08:11;75920.50;;;-146.65;85.04
57094;BME280;42970;50.996;3.706;2023-02-02T13:11:02;75914.44;;;-146.65;85.12
57094;BME280;42970;50.996;3.706;2023-02-02T13:13:30;75920.50;;;-146.65;85.40
57094;BME280;42970;50.996;3.706;2023-02-02T13:15:58;75928.56;;;-146.65;84.77
57094;BME280;42970;50.996;3.706;2023-02-02T13:18:47;75902.34;;;-146.65;83.82
57094;BME280;42970;50.996;3.706;2023-02-02T13:21:15;75904.34;;;-146.65;84.87
57094;BME280;42970;50.996;3.706;2023-02-02T13:23:46;75936.63;;;-146.65;86.29
57094;BME280;42970;50.996;3.706;2023-02-02T13:28:50;75976.97;;;-146.65;87.65
57094;BME280;42970;50.996;3.706;2023-02-02T13:31:22;75989.09;;;-146.65;88.14
57094;BME280;42970;50.996;3.706;2023-02-02T13:33:53;75997.16;;;-146.65;89.78
57094;BME280;42970;50.996;3.706;2023-02-02T13:36:21;76005.22;;;-146.65;91.00
57094;BME280;42970;50.996;3.706;2023-02-02T13:38:53;75995.13;;;-146.65;90.24
57094;BME280;42970;50.996;3.706;2023-02-02T13:41:19;75983.03;;;-146.65;89.59
57094;BME280;42970;50.996;3.706;2023-02-02T13:49:05;75968.91;;;-146.65;89.03
57094;BME280;42970;50.996;3.706;2023-02-02T13:51:41;75983.03;;;-146.65;89.05
57094;BME280;42970;50.996;3.706;2023-02-02T14:01:46;76023.38;;;-146.65;93.45
57094;BME280;42970;50.996;3.706;2023-02-02T14:04:22;76059.69;;;-146.65;95.32
57094;BME280;42970;50.996;3.706;2023-02-02T14:09:52;76077.84;;;-146.65;96.77
57094;BME280;42970;50.996;3.706;2023-02-02T14:12:25;76069.78;;;-146.65;96.66
57094;BME280;42970;50.996;3.706;2023-02-02T14:14:51;76069.78;;;-146.65;96.50
57094;BME280;42970;50.996;3.706;2023-02-02T14:19:46;76073.81;;;-146.65;97.56
57094;BME280;42970;50.996;3.706;2023-02-02T14:24:38;76055.66;;;-146.65;97.74
57094;BME280;42970;50.996;3.706;2023-02-02T14:29:33;76045.56;;;-146.65;97.34
57094;BME280;42970;50.996;3.706;2023-02-02T14:32:01;76037.50;;;-146.65;96.36